Time;durP1;ratioP1;P1;durP2;ratioP2;P2;SDS_P1;SDS_P2;PMS_P1;PMS_P2;Temp;Humidity;BMP_temperature;BMP_pressure;BME280_temperature;BME280_humidity;BME280_pressure;Samples;Min_cycle;Max_cycle;Signal;HPM_P1;HPM_P2
2023/01/17 00:02:05;;;;;;;13.20;9.00;;;;;;;7.13;73.42;99572.73;107810;1259;72147;-67
2023/01/17 00:10:16;;;;;;;15.10;8.30;;;;;;;7.15;73.21;99569.04;107722;1259;59745;-68
2023/01/17 00:12:51;;;;;;;13.80;8.70;;;;;;;7.14;73.32;99569.19;107804;1259;73744;-68
2023/01/17 00:15:19;;;;;;;13.60;8.10;;;;;;;7.16;73.34;99564.41;107698;1260;71336;-68
2023/01/17 00:17:46;;;;;;;15.30;8.80;;;;;;;7.18;73.41;99560.23;107766;1260;72056;-67
2023/01/17 00:26:02;;;;;;;12.70;7.30;;;;;;;7.24;73.10;99550.80;107679;1259;72062;-67
2023/01/17 01:35:50;;;;;;;13.10;9.20;;;;;;;7.33;71.18;99494.52;107691;1260;71605;-69
2023/01/17 01:38:18;;;;;;;13.70;8.60;;;;;;;7.34;71.12;99491.38;107719;1259;72256;-68
2023/01/17 01:40:46;;;;;;;13.30;9.20;;;;;;;7.33;70.94;99494.58;107718;1260;61928;-68
2023/01/17 01:43:15;;;;;;;13.50;9.30;;;;;;;7.33;70.91;99493.40;107735;1260;59590;-68
2023/01/17 01:45:44;;;;;;;14.10;9.20;;;;;;;7.31;70.83;99490.27;107703;1260;72035;-68
2023/01/17 01:48:32;;;;;;;13.60;9.30;;;;;;;7.31;70.83;99490.11;107718;1260;73211;-69
2023/01/17 01:51:01;;;;;;;14.90;8.80;;;;;;;7.33;70.70;99493.13;107739;1263;72153;-68
2023/01/17 01:53:29;;;;;;;12.80;9.00;;;;;;;7.35;70.63;99488.09;107703;1260;61091;-67
2023/01/17 01:55:56;;;;;;;12.50;8.40;;;;;;;7.33;70.61;99487.40;107673;1260;59649;-67
2023/01/17 01:58:24;;;;;;;14.90;9.50;;;;;;;7.34;70.55;99487.83;107706;1260;74932;-68
2023/01/17 02:00:51;;;;;;;15.40;9.80;;;;;;;7.34;70.52;99486.14;107689;1260;72716;-68
2023/01/17 06:00:52;;;;;;;25.90;17.80;;;;;;;6.62;87.78;99338.92;105671;1285;613570;-66
2023/01/17 06:03:19;;;;;;;25.50;17.40;;;;;;;7.44;83.52;99340.73;107200;1267;126484;-67
2023/01/17 06:05:46;;;;;;;24.40;17.60;;;;;;;7.46;82.37;99340.41;107401;1267;62595;-66
2023/01/17 06:08:13;;;;;;;28.80;17.60;;;;;;;7.49;81.65;99343.65;107744;1259;74078;-67
2023/01/17 06:10:40;;;;;;;24.30;16.90;;;;;;;7.53;80.95;99344.98;107729;1259;74482;-67
2023/01/17 06:13:11;;;;;;;23.40;17.20;;;;;;;7.56;80.42;99341.20;107746;1259;72885;-68
2023/01/17 06:15:38;;;;;;;24.00;16.60;;;;;;;7.59;79.76;99344.77;107732;1259;60145;-65
2023/01/17 06:18:12;;;;;;;26.40;17.20;;;;;;;7.62;79.27;99355.71;107775;1259;60190;-66
2023/01/17 06:20:40;;;;;;;23.20;16.60;;;;;;;7.64;78.85;99353.11;107745;1259;72884;-67
2023/01/17 08:01:43;;;;;;;20.50;14.60;;;;;;;7.03;85.50;99355.70;105916;1283;613697;-79
2023/01/17 08:04:10;;;;;;;24.90;16.90;;;;;;;7.87;81.12;99355.79;107401;1263;116739;-79
2023/01/17 08:06:38;;;;;;;27.00;17.70;;;;;;;7.95;80.50;99356.52;107494;1264;62140;-79
2023/01/17 08:09:05;;;;;;;26.20;15.80;;;;;;;8.02;79.92;99356.94;107398;1264;74027;-79
2023/01/17 08:11:32;;;;;;;28.30;16.90;;;;;;;8.08;79.23;99349.80;107389;1264;72490;-79
2023/01/17 08:13:59;;;;;;;24.40;16.90;;;;;;;8.11;78.65;99356.02;107857;1260;74052;-79
2023/01/17 08:16:27;;;;;;;26.70;17.00;;;;;;;8.15;78.09;99358.66;107814;1257;61051;-80
2023/01/17 08:18:55;;;;;;;27.40;16.60;;;;;;;8.17;77.80;99351.21;107866;1257;61439;-80
2023/01/17 08:21:23;;;;;;;25.00;15.70;;;;;;;8.22;77.38;99348.32;107903;1257;73936;-79
2023/01/17 08:23:50;;;;;;;26.60;17.20;;;;;;;8.26;76.94;99338.58;107913;1260;72670;-81
2023/01/17 08:26:21;;;;;;;27.50;17.40;;;;;;;8.28;76.39;99336.60;107810;1259;74521;-80
2023/01/17 08:29:01;;;;;;;27.70;16.70;;;;;;;8.29;76.05;99333.04;107798;1259;60388;-79
2023/01/17 08:31:33;;;;;;;26.40;15.40;;;;;;;8.31;75.46;99329.41;107726;1260;62054;-81
2023/01/17 08:34:00;;;;;;;;;;;;;;;8.30;75.14;99326.12;107691;1264;71557;-80
2023/01/17 08:36:27;;;;;;;28.40;16.70;;;;;;;8.33;74.84;99325.14;107839;1260;74515;-79
2023/01/17 08:38:54;;;;;;;24.00;15.30;;;;;;;8.35;74.62;99323.86;107833;1260;74633;-80
2023/01/17 08:41:22;;;;;;;26.80;17.50;;;;;;;8.36;74.43;99323.11;107824;1257;63725;-78
2023/01/17 08:43:50;;;;;;;26.10;17.70;;;;;;;8.37;74.14;99319.33;107845;1257;59751;-80
2023/01/17 08:46:17;;;;;;;24.80;16.90;;;;;;;8.39;74.00;99316.86;107787;1258;75205;-85
2023/01/17 08:48:44;;;;;;;23.80;15.60;;;;;;;8.42;73.72;99314.12;107789;1257;74876;-79
2023/01/17 08:51:11;;;;;;;26.30;17.40;;;;;;;8.45;73.57;99313.79;107697;1261;73061;-80
2023/01/17 08:53:39;;;;;;;25.80;16.90;;;;;;;8.49;73.49;99319.00;107773;1259;61710;-78
2023/01/17 08:56:06;;;;;;;24.90;16.90;;;;;;;8.49;73.26;99313.71;107793;1259;62512;-80
2023/01/17 08:58:34;;;;;;;26.60;16.80;;;;;;;8.50;73.13;99311.33;107669;1260;73065;-80
2023/01/17 09:01:03;;;;;;;30.80;16.90;;;;;;;8.52;73.00;99310.63;107629;1260;72200;-79
2023/01/17 09:03:31;;;;;;;28.40;18.90;;;;;;;8.54;72.86;99305.51;107672;1260;71544;-78
2023/01/17 09:06:02;;;;;;;25.10;16.80;;;;;;;8.55;72.84;99309.80;107634;1260;60616;-80
2023/01/17 09:08:29;;;;;;;26.80;16.50;;;;;;;8.56;72.74;99297.52;107617;1260;62691;-78
2023/01/17 09:10:57;;;;;;;27.20;17.30;;;;;;;8.55;72.49;99295.02;107634;1260;72385;-79
2023/01/17 09:13:24;;;;;;;28.70;19.40;;;;;;;8.56;72.40;99291.33;107627;1260;74689;-79
2023/01/17 09:15:55;;;;;;;31.10;18.20;;;;;;;8.61;72.35;99283.05;107618;1260;72287;-79
2023/01/17 09:18:23;;;;;;;25.50;16.60;;;;;;;8.66;72.04;99280.21;107616;1260;62584;-79
2023/01/17 09:20:53;;;;;;;24.50;16.80;;;;;;;8.68;72.06;99273.00;107617;1260;60489;-84
2023/01/17 09:23:23;;;;;;;26.50;16.00;;;;;;;8.67;71.95;99266.25;107685;1260;74300;-81
2023/01/17 09:25:57;;;;;;;27.00;17.30;;;;;;;8.65;72.07;99260.36;107661;1260;75168;-79
2023/01/17 09:28:27;;;;;;;26.30;17.10;;;;;;;8.67;72.10;99258.10;107673;1260;75022;-81
2023/01/17 09:30:54;;;;;;;27.60;18.50;;;;;;;8.69;72.12;99253.72;107669;1260;62074;-80
2023/01/17 09:33:24;;;;;;;30.40;19.70;;;;;;;8.72;72.05;99252.55;107633;1260;61673;-80
2023/01/17 09:35:51;;;;;;;28.80;17.50;;;;;;;8.74;72.00;99247.83;107620;1260;74209;-80
2023/01/17 09:38:20;;;;;;;28.30;18.80;;;;;;;8.76;71.80;99242.34;107689;1260;73157;-80
2023/01/17 09:40:47;;;;;;;27.00;16.50;;;;;;;8.78;71.90;99239.40;107608;1260;74510;-78
2023/01/17 09:43:22;;;;;;;28.90;17.70;;;;;;;8.79;71.76;99234.92;107683;1259;62691;-79
2023/01/17 09:45:49;;;;;;;26.50;17.20;;;;;;;8.79;71.60;99231.46;107689;1259;60857;-80
2023/01/17 09:48:21;;;;;;;27.10;17.30;;;;;;;8.75;71.54;99231.48;107728;1259;72896;-80
2023/01/17 09:50:55;;;;;;;23.80;16.20;;;;;;;8.75;71.56;99229.46;107654;1260;73321;-79
2023/01/17 09:53:22;;;;;;;27.40;16.80;;;;;;;8.75;71.52;99226.48;107679;1260;73915;-81
2023/01/17 09:56:02;;;;;;;26.20;16.60;;;;;;;8.73;71.46;99222.04;107637;1260;62726;-80
2023/01/17 16:18:29;;;;;;;33.60;22.00;;;;;;;8.83;87.36;99088.66;105080;1289;613282;-67
2023/01/17 16:21:00;;;;;;;35.20;22.00;;;;;;;9.61;83.13;99090.75;107139;1267;162369;-66
2023/01/17 16:23:27;;;;;;;35.20;22.60;;;;;;;9.64;82.38;99096.35;107291;1272;61227;-66
2023/01/17 16:25:54;;;;;;;33.50;21.60;;;;;;;9.67;81.81;99100.31;107389;1266;74239;-66
2023/01/17 16:28:21;;;;;;;29.00;20.20;;;;;;;9.70;81.34;99103.90;107348;1266;72837;-66
2023/01/17 16:30:48;;;;;;;35.60;21.10;;;;;;;9.73;80.83;99109.45;107335;1266;72548;-66
2023/01/17 16:33:16;;;;;;;33.80;21.20;;;;;;;9.76;80.54;99108.94;107310;1266;63213;-67
2023/01/17 16:35:43;;;;;;;33.30;22.30;;;;;;;9.78;80.08;99111.84;107365;1265;59672;-67
2023/01/17 16:38:11;;;;;;;33.10;21.00;;;;;;;9.81;79.71;99109.89;107318;1266;72109;-67
2023/01/17 16:40:43;;;;;;;32.50;20.80;;;;;;;9.80;79.19;99104.82;107570;1261;73133;-66
2023/01/17 16:43:10;;;;;;;30.70;19.50;;;;;;;9.76;78.77;99106.48;107568;1262;71239;-67
2023/01/17 16:45:39;;;;;;;34.00;20.70;;;;;;;9.55;79.15;99109.69;107565;1262;60640;-66
2023/01/17 16:48:07;;;;;;;32.60;19.40;;;;;;;9.69;78.37;99110.30;107543;1262;60993;-69
2023/01/17 16:50:34;;;;;;;30.60;20.30;;;;;;;9.74;77.93;99111.65;107498;1262;72852;-66
2023/01/17 16:53:01;;;;;;;31.60;20.10;;;;;;;9.75;77.51;99105.75;107489;1262;71940;-66
2023/01/17 16:55:28;;;;;;;33.10;21.40;;;;;;;9.73;77.23;99104.34;107527;1262;74443;-66
2023/01/17 16:57:55;;;;;;;36.00;21.40;;;;;;;9.73;77.09;99112.23;107575;1260;63931;-66
2023/01/17 17:00:22;;;;;;;31.30;20.40;;;;;;;9.50;77.43;99120.05;107638;1260;61080;-66
2023/01/17 17:02:50;;;;;;;31.10;19.80;;;;;;;9.38;77.87;99124.96;107577;1260;74993;-67
2023/01/17 17:05:17;;;;;;;33.50;20.90;;;;;;;9.39;78.06;99136.19;107881;1256;74412;-66
2023/01/17 17:07:46;;;;;;;31.90;20.80;;;;;;;9.41;78.08;99139.96;107735;1259;72798;-66
2023/01/17 17:10:18;;;;;;;30.00;20.10;;;;;;;9.43;77.93;99138.66;107749;1259;60879;-67
2023/01/17 17:12:45;;;;;;;32.00;20.40;;;;;;;9.44;77.72;99143.17;107693;1258;62120;-65
2023/01/17 17:15:12;;;;;;;30.00;19.10;;;;;;;9.44;77.67;99145.26;107594;1259;75317;-65
2023/01/17 17:17:41;;;;;;;33.80;20.70;;;;;;;9.46;77.39;99144.02;107640;1263;72774;-65
2023/01/17 17:20:12;;;;;;;30.50;19.40;;;;;;;9.47;77.32;99144.64;107625;1259;70809;-67
2023/01/17 17:22:42;;;;;;;31.20;19.00;;;;;;;9.49;77.04;99147.93;107656;1259;63356;-65
2023/01/17 17:25:10;;;;;;;33.30;20.80;;;;;;;9.49;76.82;99152.23;107612;1259;62987;-65
2023/01/17 17:27:37;;;;;;;33.00;21.00;;;;;;;9.50;76.53;99150.73;107590;1263;73962;-65
2023/01/17 17:30:06;;;;;;;34.90;20.80;;;;;;;9.49;76.34;99156.98;107837;1259;71323;-66
2023/01/17 17:32:32;;;;;;;29.00;20.10;;;;;;;9.47;76.09;99155.19;107807;1259;72816;-66
2023/01/17 17:34:59;;;;;;;35.20;21.90;;;;;;;9.45;75.84;99159.85;107650;1263;63028;-66
2023/01/17 17:37:27;;;;;;;33.20;21.40;;;;;;;9.42;75.87;99168.30;107692;1259;61559;-66
2023/01/17 17:39:57;;;;;;;32.20;21.50;;;;;;;9.41;75.86;99170.08;107700;1258;72300;-67
2023/01/17 17:42:24;;;;;;;35.40;21.50;;;;;;;9.40;75.69;99162.46;107765;1259;73097;-66
2023/01/17 17:44:51;;;;;;;35.70;21.80;;;;;;;9.40;75.69;99158.24;107714;1259;73082;-66
2023/01/17 17:47:18;;;;;;;33.50;21.00;;;;;;;9.39;75.64;99163.80;107671;1259;64436;-67
2023/01/17 17:49:45;;;;;;;33.30;20.70;;;;;;;9.40;75.63;99171.04;107708;1259;62239;-67
2023/01/17 17:52:13;;;;;;;35.90;22.00;;;;;;;9.40;75.73;99166.40;107672;1258;71889;-66
2023/01/17 17:54:40;;;;;;;33.40;22.10;;;;;;;9.41;75.72;99171.20;107690;1259;74841;-66
2023/01/17 17:57:08;;;;;;;33.70;21.70;;;;;;;9.42;75.67;99173.16;107689;1259;73922;-66
2023/01/17 17:59:35;;;;;;;35.70;20.40;;;;;;;9.43;75.68;99175.90;107703;1259;61689;-66
2023/01/17 21:20:06;;;;;;;31.20;21.10;;;;;;;7.33;89.34;99316.58;98134;1284;10002127;-67
2023/01/17 21:22:34;;;;;;;35.40;21.40;;;;;;;8.04;85.62;99317.79;107321;1266;120787;-67
2023/01/17 21:25:01;;;;;;;32.20;20.90;;;;;;;8.09;84.89;99315.60;107170;1271;74258;-67
2023/01/17 21:27:28;;;;;;;32.90;20.10;;;;;;;8.10;84.26;99318.04;107180;1266;73531;-67
2023/01/17 21:29:55;;;;;;;30.60;18.80;;;;;;;8.08;83.74;99316.34;107282;1266;74884;-67
2023/01/17 21:32:23;;;;;;;25.50;17.20;;;;;;;8.12;82.90;99307.88;107265;1266;60530;-67
2023/01/17 21:34:51;;;;;;;26.30;17.20;;;;;;;8.04;82.45;99310.55;107301;1266;61234;-67
2023/01/17 21:37:18;;;;;;;27.00;16.20;;;;;;;7.95;82.10;99313.51;92389;1266;10002314;-66
2023/01/17 21:39:50;;;;;;;28.00;16.90;;;;;;;7.90;81.86;99308.26;107123;1267;74408;-65
2023/01/17 21:42:17;;;;;;;25.10;16.80;;;;;;;7.85;81.57;99303.54;108409;1266;74152;-66
2023/01/17 21:44:44;;;;;;;25.70;15.90;;;;;;;7.80;81.29;99297.11;107924;1266;74615;-66
2023/01/17 21:47:11;;;;;;;26.10;16.60;;;;;;;7.69;81.03;99289.91;107153;1269;62313;-66
2023/01/17 21:49:38;;;;;;;24.30;16.20;;;;;;;7.61;80.72;99286.52;107762;1266;59572;-66
2023/01/17 22:00:08;;;;;;;28.10;17.10;;;;;;;7.24;79.77;99278.25;107157;1263;63101;-66
2023/01/17 22:02:40;;;;;;;29.50;17.50;;;;;;;7.13;79.69;99277.56;107936;1255;61106;-66
2023/01/17 22:05:08;;;;;;;29.00;18.60;;;;;;;7.04;79.65;99281.34;108004;1254;74109;-67
2023/01/17 22:07:37;;;;;;;27.20;17.50;;;;;;;7.00;79.71;99285.48;100341;1257;10002165;-67
2023/01/17 22:10:05;;;;;;;26.80;17.60;;;;;;;6.98;79.64;99290.58;107640;1259;62761;-66
2023/01/17 22:12:32;;;;;;;29.40;17.90;;;;;;;6.99;79.58;99294.02;107721;1260;60271;-67
2023/01/17 22:14:59;;;;;;;25.80;17.40;;;;;;;6.99;79.51;99292.69;107868;1256;74078;-67
2023/01/17 22:17:28;;;;;;;27.40;17.30;;;;;;;6.98;79.45;99288.23;107705;1256;75084;-67
2023/01/17 22:19:55;;;;;;;29.70;18.00;;;;;;;6.99;79.43;99290.88;107711;1257;75342;-66
2023/01/17 22:22:22;;;;;;;28.50;18.20;;;;;;;6.98;79.31;99287.91;107768;1262;60924;-66
2023/01/17 22:24:49;;;;;;;26.80;16.90;;;;;;;6.96;79.35;99294.17;107874;1257;60415;-66
2023/01/17 22:27:16;;;;;;;26.60;17.20;;;;;;;6.95;79.36;99293.60;107638;1259;75129;-66
2023/01/17 22:29:46;;;;;;;24.80;16.80;;;;;;;6.94;79.32;99292.52;107789;1260;71958;-66
2023/01/17 22:32:13;;;;;;;26.90;17.60;;;;;;;6.93;79.34;99299.73;107689;1257;73300;-68
2023/01/17 22:34:41;;;;;;;32.80;18.40;;;;;;;6.95;79.31;99301.39;107596;1257;61650;-67
2023/01/17 22:37:08;;;;;;;27.70;16.60;;;;;;;6.92;79.19;99304.89;107759;1256;60333;-66
2023/01/17 22:39:37;;;;;;;28.40;18.30;;;;;;;6.86;79.21;99303.70;107792;1259;74967;-67
2023/01/17 22:42:05;;;;;;;28.40;18.40;;;;;;;6.79;79.14;99301.73;107667;1255;73425;-66
2023/01/17 22:44:32;;;;;;;28.00;18.40;;;;;;;6.74;79.22;99304.06;107731;1256;70898;-67
2023/01/17 22:46:59;;;;;;;25.00;17.80;;;;;;;6.74;79.38;99297.15;107711;1256;63406;-66
2023/01/17 22:49:26;;;;;;;27.80;17.90;;;;;;;6.75;79.39;99296.74;107739;1257;59704;-67
2023/01/17 22:51:53;;;;;;;29.00;18.00;;;;;;;6.76;79.41;99294.34;107807;1256;74834;-66
2023/01/17 22:54:22;;;;;;;29.20;18.20;;;;;;;6.78;79.43;99289.20;107932;1256;74845;-66
2023/01/17 22:56:49;;;;;;;29.80;18.20;;;;;;;6.80;79.45;99291.96;107932;1256;74673;-66
2023/01/17 22:59:16;;;;;;;27.90;18.00;;;;;;;6.85;79.55;99300.15;107972;1257;62730;-66
2023/01/17 23:01:43;;;;;;;31.80;19.20;;;;;;;6.87;79.73;99297.55;107871;1257;59554;-67
2023/01/17 23:04:14;;;;;;;28.00;17.80;;;;;;;6.92;79.84;99299.68;107793;1256;73222;-66
2023/01/17 23:06:42;;;;;;;28.80;18.10;;;;;;;6.97;79.86;99305.96;107778;1257;73561;-66
2023/01/17 23:09:12;;;;;;;30.60;19.00;;;;;;;7.00;79.89;99309.10;107974;1257;72934;-65
2023/01/17 23:11:42;;;;;;;26.50;17.80;;;;;;;7.08;79.71;99307.19;107691;1257;62822;-67
2023/01/17 23:14:17;;;;;;;34.60;18.90;;;;;;;7.04;79.79;99301.63;108119;1256;61167;-66
2023/01/17 23:19:48;;;;;;;27.30;17.00;;;;;;;7.07;79.87;99303.90;107854;1256;74588;-65
2023/01/17 23:22:18;;;;;;;28.50;17.90;;;;;;;7.09;79.86;99307.56;107800;1256;73735;-67
2023/01/17 23:24:50;;;;;;;29.30;18.30;;;;;;;7.11;79.84;99311.22;107961;1257;63335;-67
2023/01/17 23:30:12;;;;;;;29.50;18.70;;;;;;;7.18;80.25;99304.76;107993;1256;73792;-67
2023/01/17 23:32:45;;;;;;;35.00;19.90;;;;;;;7.23;80.61;99302.36;107852;1257;73804;-67
2023/01/17 23:35:13;;;;;;;28.70;18.00;;;;;;;7.31;80.88;99307.42;107866;1258;72996;-67
2023/01/17 23:40:27;;;;;;;26.20;17.90;;;;;;;7.47;81.48;99309.44;107976;1257;60539;-66
2023/01/17 23:45:40;;;;;;;27.90;19.20;;;;;;;7.62;81.73;99317.08;107858;1256;73571;-66
2023/01/17 23:48:10;;;;;;;27.10;17.50;;;;;;;7.70;81.77;99321.85;107650;1257;72300;-66
2023/01/17 23:50:38;;;;;;;28.60;18.40;;;;;;;7.79;81.87;99327.30;107933;1257;62122;-67
